OS65 weather

Shayrat Air Base
Shayrat, Homs Governorate, Syria

Public forecast

Using degrees Celsius for public forecast. Weather courtesy of forecast.io.

Closest aviation weather report (METAR) to Shayrat Air Base

Closest report is Damascus International Airport, 67.7 nm (125.3 km) SSW. Retrieved 2019/11/17 18:00 UTC (54 minutes ago):

OSDI 171800Z 04004KT CAVOK 08/10 Q1023

Closest aviation forecast (TAF) to Shayrat Air Base

Closest forecast is Damascus International Airport, 67.7 nm (125.3 km) SSW. Retrieved 2019/11/17 18:00 UTC (54 minutes ago):

TAF TAF OSDI 171700Z 1718/1824 VRB03KT CAVOK PROB030 TEMPO 1800/1806 4000BR SCT010